createdAt,value
2023-02-12T00:00:25.126Z,5.77
2023-02-12T00:03:30.253Z,5.76
2023-02-12T00:06:34.143Z,5.78
2023-02-12T00:09:38.489Z,5.78
2023-02-12T00:12:42.157Z,5.77
2023-02-12T00:15:45.964Z,5.76
2023-02-12T00:18:55.213Z,5.76
2023-02-12T00:21:59.018Z,5.76
2023-02-12T00:25:02.724Z,5.74
2023-02-12T00:28:06.540Z,5.74
2023-02-12T00:31:12.932Z,5.75
2023-02-12T00:34:18.097Z,5.77
2023-02-12T00:37:21.794Z,5.75
2023-02-12T00:40:25.694Z,5.73
2023-02-12T00:43:29.378Z,5.75
2023-02-12T00:46:33.071Z,5.73
2023-02-12T00:49:38.170Z,5.74
2023-02-12T00:52:41.917Z,5.74
2023-02-12T00:55:45.586Z,5.75
2023-02-12T00:58:49.258Z,5.78
2023-02-12T01:01:55.449Z,5.77
2023-02-12T01:05:00.743Z,5.79
2023-02-12T01:08:05.231Z,5.78
2023-02-12T01:11:09.084Z,5.76
2023-02-12T01:14:12.852Z,5.76
2023-02-12T01:17:16.703Z,5.77
2023-02-12T01:20:25.671Z,5.77
2023-02-12T01:23:29.449Z,5.81
2023-02-12T01:26:33.966Z,5.78
2023-02-12T01:29:39.926Z,5.76
2023-02-12T01:32:44.145Z,5.75
2023-02-12T01:35:49.313Z,5.75
2023-02-12T01:38:53.552Z,5.75
2023-02-12T01:41:57.468Z,5.76
2023-02-12T01:45:46.706Z,5.75
2023-02-12T01:48:50.525Z,5.77
2023-02-12T01:52:03.946Z,5.74
2023-02-12T01:55:11.394Z,5.75
2023-02-12T01:58:16.127Z,5.67
2023-02-12T02:01:26.946Z,5.61
2023-02-12T02:04:38.028Z,5.58
2023-02-12T02:07:46.480Z,5.57
2023-02-12T02:10:50.219Z,5.61
2023-02-12T02:14:11.953Z,5.55
2023-02-12T02:17:53.073Z,5.56
2023-02-12T02:21:47.700Z,5.56
2023-02-12T02:25:35.653Z,5.53
2023-02-12T02:29:15.270Z,5.54
2023-02-12T02:32:25.961Z,5.57
2023-02-12T02:35:38.442Z,5.57
2023-02-12T02:38:50.813Z,5.55
2023-02-12T02:42:02.983Z,5.60
2023-02-12T02:45:15.208Z,5.57
2023-02-12T02:48:27.516Z,5.56
2023-02-12T02:51:37.125Z,5.55
2023-02-12T02:54:46.934Z,5.53
2023-02-12T02:57:57.210Z,5.56
2023-02-12T03:01:07.278Z,5.54
2023-02-12T03:04:21.270Z,5.55
2023-02-12T03:07:32.956Z,5.55
2023-02-12T03:10:43.923Z,5.58
2023-02-12T03:13:54.709Z,5.55
2023-02-12T03:17:04.076Z,5.54
2023-02-12T03:20:17.032Z,5.57
2023-02-12T03:23:29.111Z,5.55
2023-02-12T03:26:44.647Z,5.53
2023-02-12T03:29:48.926Z,5.51
2023-02-12T03:33:08.201Z,5.52
2023-02-12T03:36:28.575Z,5.47
2023-02-12T03:39:40.270Z,5.46
2023-02-12T03:42:59.143Z,5.47
2023-02-12T03:46:29.410Z,5.49
2023-02-12T03:49:39.774Z,5.45
2023-02-12T03:52:51.936Z,5.43
2023-02-12T03:56:11.062Z,5.43
2023-02-12T03:59:27.417Z,5.44
2023-02-12T04:02:43.115Z,5.47
2023-02-12T04:05:49.149Z,5.43
2023-02-12T04:09:09.152Z,5.44
2023-02-12T04:12:40.254Z,5.42
2023-02-12T04:16:06.763Z,5.42
2023-02-12T04:19:16.281Z,5.43
2023-02-12T04:22:46.592Z,5.41
2023-02-12T04:26:03.730Z,5.46
2023-02-12T04:29:20.522Z,5.40
2023-02-12T04:32:34.154Z,5.40
2023-02-12T04:35:48.912Z,5.42
2023-02-12T04:38:57.667Z,5.45
2023-02-12T04:42:04.174Z,5.41
2023-02-12T04:45:11.304Z,5.41
2023-02-12T04:48:15.118Z,5.43
2023-02-12T04:51:18.769Z,5.40
2023-02-12T04:54:24.297Z,5.45
2023-02-12T04:57:31.589Z,5.42
2023-02-12T05:00:35.640Z,5.44
2023-02-12T05:03:39.604Z,5.35
2023-02-12T05:06:49.684Z,5.40
2023-02-12T05:09:53.366Z,5.41
2023-02-12T05:12:58.484Z,5.39
2023-02-12T05:16:05.613Z,5.39
2023-02-12T05:19:10.023Z,5.37
2023-02-12T05:22:14.438Z,5.40
2023-02-12T05:25:18.139Z,5.36
2023-02-12T05:28:23.263Z,5.35
2023-02-12T05:31:27.072Z,5.34
2023-02-12T05:34:31.102Z,5.36
2023-02-12T05:37:36.788Z,5.36
2023-02-12T05:40:41.144Z,5.33
2023-02-12T05:43:49.557Z,5.31
2023-02-12T05:46:53.634Z,5.32
2023-02-12T05:49:57.496Z,5.35
2023-02-12T05:53:01.877Z,5.37
2023-02-12T05:56:15.726Z,5.38
2023-02-12T05:59:24.096Z,5.37
2023-02-12T06:02:29.318Z,5.36
2023-02-12T06:05:33.055Z,5.41
2023-02-12T06:08:37.268Z,5.38
2023-02-12T06:11:41.530Z,5.42
2023-02-12T06:14:46.770Z,5.41
2023-02-12T06:17:50.583Z,5.40
2023-02-12T06:20:55.694Z,5.41
2023-02-12T06:23:59.921Z,5.41
2023-02-12T06:27:03.908Z,5.42
2023-02-12T06:30:10.916Z,5.42
2023-02-12T06:33:14.787Z,5.43
2023-02-12T06:36:19.283Z,5.42
2023-02-12T06:39:22.984Z,5.40
2023-02-12T06:42:26.758Z,5.40
2023-02-12T06:45:31.811Z,5.41
2023-02-12T06:48:36.112Z,5.39
2023-02-12T06:51:41.364Z,5.45
2023-02-12T06:54:45.108Z,5.42
2023-02-12T06:57:50.100Z,5.43
2023-02-12T07:00:55.449Z,5.40
2023-02-12T07:04:03.681Z,5.44
2023-02-12T07:07:08.127Z,5.40
2023-02-12T07:10:12.470Z,5.42
2023-02-12T07:13:16.327Z,5.43
2023-02-12T07:16:21.752Z,5.45
2023-02-12T07:19:25.853Z,5.44
2023-02-12T07:22:29.548Z,5.52
2023-02-12T07:25:33.433Z,5.48
2023-02-12T07:28:38.498Z,5.47
2023-02-12T07:31:45.028Z,5.52
2023-02-12T07:34:49.117Z,5.51
2023-02-12T07:37:53.385Z,5.55
2023-02-12T07:41:13.777Z,5.67
2023-02-12T07:44:18.153Z,5.61
2023-02-12T07:47:26.134Z,5.56
2023-02-12T07:50:29.921Z,5.57
2023-02-12T07:53:37.777Z,5.55
2023-02-12T07:56:47.120Z,5.56
2023-02-12T07:59:51.373Z,5.60
2023-02-12T08:02:56.503Z,5.60
2023-02-12T08:06:00.256Z,5.65
2023-02-12T08:09:08.263Z,5.65
2023-02-12T08:12:12.013Z,5.67
2023-02-12T08:15:16.073Z,5.66
2023-02-12T08:18:21.323Z,5.66
2023-02-12T08:21:27.270Z,5.67
2023-02-12T08:24:31.873Z,5.74
2023-02-12T08:27:35.648Z,5.73
2023-02-12T08:30:39.418Z,5.74
2023-02-12T08:33:47.007Z,5.72
2023-02-12T08:36:54.073Z,5.72
2023-02-12T08:39:57.904Z,5.71
2023-02-12T08:43:01.675Z,5.77
2023-02-12T08:46:08.566Z,5.72
2023-02-12T08:49:17.211Z,5.75
2023-02-12T08:52:20.879Z,5.83
2023-02-12T08:55:24.576Z,5.75
2023-02-12T08:58:28.446Z,5.82
2023-02-12T09:01:35.837Z,5.90
2023-02-12T09:04:41.276Z,5.93
2023-02-12T09:07:44.982Z,5.90
2023-02-12T09:10:48.799Z,5.95
2023-02-12T09:13:52.709Z,6.01
2023-02-12T09:16:58.479Z,6.01
2023-02-12T09:20:03.653Z,5.95
2023-02-12T09:23:07.556Z,5.94
2023-02-12T09:26:15.327Z,6.00
2023-02-12T09:29:19.085Z,6.05
2023-02-12T09:32:22.784Z,6.04
2023-02-12T09:35:27.984Z,6.11
2023-02-12T09:38:32.520Z,6.06
2023-02-12T09:42:45.340Z,6.05
2023-02-12T09:45:59.667Z,6.10
2023-02-12T09:49:11.813Z,6.10
2023-02-12T09:52:20.955Z,6.04
2023-02-12T09:55:30.935Z,6.18
2023-02-12T09:58:43.853Z,6.17
2023-02-12T10:01:47.709Z,6.12
2023-02-12T10:05:01.094Z,6.31
2023-02-12T10:08:38.437Z,6.25
2023-02-12T10:12:01.800Z,6.40
2023-02-12T10:15:34.007Z,6.53
2023-02-12T10:19:14.524Z,6.46
2023-02-12T10:22:32.539Z,6.46
2023-02-12T10:25:51.621Z,6.50
2023-02-12T10:29:01.497Z,6.59
2023-02-12T10:32:14.627Z,6.52
2023-02-12T10:35:22.465Z,6.54
2023-02-12T10:38:33.914Z,6.58
2023-02-12T10:41:46.942Z,6.68
2023-02-12T10:44:50.803Z,6.80
2023-02-12T10:48:07.326Z,6.77
2023-02-12T10:51:37.956Z,6.87
2023-02-12T10:54:44.662Z,6.93
2023-02-12T10:57:49.839Z,6.99
2023-02-12T11:00:59.976Z,6.87
2023-02-12T11:04:26.224Z,6.78
2023-02-12T11:07:30.490Z,6.85
2023-02-12T11:10:39.736Z,6.92
2023-02-12T11:13:54.899Z,6.89
2023-02-12T11:17:02.742Z,6.88
2023-02-12T11:20:25.551Z,6.95
2023-02-12T11:23:32.280Z,6.80
2023-02-12T11:26:36.031Z,6.87
2023-02-12T11:29:42.070Z,6.90
2023-02-12T11:32:46.644Z,6.95
2023-02-12T11:35:56.952Z,7.09
2023-02-12T11:39:02.404Z,7.19
2023-02-12T11:42:16.620Z,7.23
2023-02-12T11:45:31.336Z,7.29
2023-02-12T11:48:39.317Z,7.22
2023-02-12T11:51:43.038Z,7.10
2023-02-12T11:54:51.810Z,7.13
2023-02-12T11:58:04.259Z,7.00
2023-02-12T12:01:20.272Z,7.12
2023-02-12T12:04:27.037Z,7.04
2023-02-12T12:07:38.114Z,7.08
2023-02-12T12:10:50.183Z,7.13
2023-02-12T12:14:02.851Z,7.20
2023-02-12T12:17:33.855Z,7.18
2023-02-12T12:20:48.401Z,7.16
2023-02-12T12:23:59.838Z,7.31
2023-02-12T12:27:39.233Z,7.20
2023-02-12T12:31:01.162Z,7.17
2023-02-12T12:34:11.551Z,7.17
2023-02-12T12:37:35.602Z,7.25
2023-02-12T12:41:03.536Z,7.16
2023-02-12T12:44:31.676Z,7.21
2023-02-12T12:48:03.491Z,7.21
2023-02-12T12:51:31.640Z,7.26
2023-02-12T12:55:07.583Z,7.37
2023-02-12T12:58:22.083Z,7.27
2023-02-12T13:02:00.639Z,7.19
2023-02-12T13:06:03.915Z,7.20
2023-02-12T13:09:45.285Z,7.09
2023-02-12T13:13:11.120Z,6.96
2023-02-12T13:16:23.288Z,6.94
2023-02-12T13:19:44.673Z,6.92
2023-02-12T13:23:00.566Z,6.84
2023-02-12T13:26:17.656Z,6.95
2023-02-12T13:29:27.447Z,6.90
2023-02-12T13:32:37.459Z,6.94
2023-02-12T13:35:48.413Z,6.93
2023-02-12T13:39:01.351Z,6.88
2023-02-12T13:42:40.925Z,6.83
2023-02-12T13:45:57.181Z,6.91
2023-02-12T13:49:19.573Z,6.79
2023-02-12T13:52:36.499Z,6.92
2023-02-12T13:56:03.062Z,6.84
2023-02-12T13:59:49.198Z,6.96
2023-02-12T14:02:54.367Z,6.83
2023-02-12T14:06:17.405Z,6.93
2023-02-12T14:09:30.051Z,6.94
2023-02-12T14:12:43.206Z,7.03
2023-02-12T14:15:52.685Z,6.88
2023-02-12T14:19:56.437Z,6.90
2023-02-12T14:23:24.452Z,6.87
2023-02-12T14:26:38.032Z,6.83
2023-02-12T14:29:42.151Z,6.81
2023-02-12T14:33:23.230Z,6.89
2023-02-12T14:36:41.906Z,6.92
2023-02-12T14:39:46.804Z,6.87
2023-02-12T14:42:58.354Z,6.87
2023-02-12T14:46:45.595Z,6.96
2023-02-12T14:49:56.409Z,6.81
2023-02-12T14:53:23.799Z,6.83
2023-02-12T14:56:28.756Z,6.74
2023-02-12T14:59:41.426Z,6.79
2023-02-12T15:02:53.627Z,6.83
2023-02-12T15:06:08.590Z,6.84
2023-02-12T15:09:22.333Z,6.83
2023-02-12T15:12:40.648Z,6.88
2023-02-12T15:15:55.401Z,6.92
2023-02-12T15:19:07.508Z,6.78
2023-02-12T15:22:31.362Z,6.78
2023-02-12T15:25:35.570Z,6.77
2023-02-12T15:28:41.845Z,6.70
2023-02-12T15:31:51.645Z,6.73
2023-02-12T15:34:57.476Z,6.73
2023-02-12T15:38:07.651Z,6.69
2023-02-12T15:41:29.602Z,6.68
2023-02-12T15:44:38.427Z,6.70
2023-02-12T15:47:43.564Z,6.67
2023-02-12T15:50:54.790Z,6.66
2023-02-12T15:54:05.343Z,6.71
2023-02-12T15:57:20.763Z,6.68
2023-02-12T16:00:40.898Z,6.73
2023-02-12T16:03:45.394Z,6.68
2023-02-12T16:06:51.273Z,6.71
2023-02-12T16:09:59.127Z,6.65
2023-02-12T16:13:03.167Z,6.59
2023-02-12T16:16:19.931Z,6.60
2023-02-12T16:19:27.757Z,6.62
2023-02-12T16:22:38.457Z,6.64
2023-02-12T16:25:43.685Z,6.60
2023-02-12T16:28:50.664Z,6.60
2023-02-12T16:31:59.011Z,6.61
2023-02-12T16:35:07.762Z,6.61
2023-02-12T16:38:43.768Z,6.56
2023-02-12T16:41:57.900Z,6.58
2023-02-12T16:45:01.805Z,6.51
2023-02-12T16:48:17.222Z,6.53
2023-02-12T16:51:30.082Z,6.50
2023-02-12T16:54:36.206Z,6.57
2023-02-12T16:57:41.662Z,6.54
2023-02-12T17:00:45.841Z,6.56
2023-02-12T17:03:51.142Z,6.52
2023-02-12T17:06:55.094Z,6.52
2023-02-12T17:09:59.094Z,6.48
2023-02-12T17:13:04.252Z,6.46
2023-02-12T17:16:09.072Z,6.51
2023-02-12T17:19:14.314Z,6.46
2023-02-12T17:22:25.830Z,6.48
2023-02-12T17:25:30.384Z,6.47
2023-02-12T17:28:35.757Z,6.50
2023-02-12T17:31:39.796Z,6.50
2023-02-12T17:34:49.126Z,6.47
2023-02-12T17:37:53.145Z,6.46
2023-02-12T17:40:57.098Z,6.41
2023-02-12T17:44:03.417Z,6.43
2023-02-12T17:47:07.546Z,6.44
2023-02-12T17:50:14.599Z,6.44
2023-02-12T17:53:23.562Z,6.42
2023-02-12T17:56:35.508Z,6.45
2023-02-12T17:59:53.910Z,6.43
2023-02-12T18:03:12.364Z,6.42
2023-02-12T18:06:36.143Z,6.41
2023-02-12T18:10:00.018Z,6.42
2023-02-12T18:13:17.658Z,6.43
2023-02-12T18:16:50.099Z,6.46
2023-02-12T18:20:11.638Z,6.46
2023-02-12T18:23:34.319Z,6.44
2023-02-12T18:27:10.758Z,6.42
2023-02-12T18:30:36.416Z,6.39
2023-02-12T18:34:02.180Z,6.41
2023-02-12T18:37:15.704Z,6.40
2023-02-12T18:40:43.548Z,6.41
2023-02-12T18:44:06.273Z,6.44
2023-02-12T18:47:31.316Z,6.41
2023-02-12T18:50:53.711Z,6.42
2023-02-12T18:54:23.788Z,6.40
2023-02-12T18:58:23.430Z,6.39
2023-02-12T19:01:39.715Z,6.40
2023-02-12T19:04:57.848Z,6.43
2023-02-12T19:08:25.274Z,6.41
2023-02-12T19:12:01.463Z,6.39
2023-02-12T19:15:11.633Z,6.40
2023-02-12T19:18:16.764Z,6.38
2023-02-12T19:21:20.532Z,6.37
2023-02-12T19:24:28.680Z,6.37
2023-02-12T19:27:38.851Z,6.35
2023-02-12T19:30:43.366Z,6.37
2023-02-12T19:33:48.529Z,6.37
2023-02-12T19:36:52.669Z,6.33
2023-02-12T19:39:58.045Z,6.33
2023-02-12T19:43:01.769Z,6.32
2023-02-12T19:46:08.537Z,6.35
2023-02-12T19:49:17.793Z,6.30
2023-02-12T19:52:21.774Z,6.31
2023-02-12T19:55:27.208Z,6.27
2023-02-12T19:58:31.968Z,6.29
2023-02-12T20:01:36.476Z,6.30
2023-02-12T20:04:40.651Z,6.27
2023-02-12T20:07:44.444Z,6.30
2023-02-12T20:10:49.567Z,6.28
2023-02-12T20:13:53.686Z,6.27
2023-02-12T20:16:58.920Z,6.26
2023-02-12T20:20:02.711Z,6.24
2023-02-12T20:23:06.567Z,6.24
2023-02-12T20:26:15.528Z,6.22
2023-02-12T20:29:19.297Z,6.22
2023-02-12T20:32:23.091Z,6.21
2023-02-12T20:35:26.900Z,6.21
2023-02-12T20:38:30.751Z,6.18
2023-02-12T20:41:37.539Z,6.20
2023-02-12T20:44:41.311Z,6.15
2023-02-12T20:47:45.142Z,6.17
2023-02-12T20:50:49.006Z,6.17
2023-02-12T20:53:54.215Z,6.20
2023-02-12T20:56:59.380Z,6.13
2023-02-12T21:00:03.649Z,6.08
2023-02-12T21:03:12.281Z,6.06
2023-02-12T21:07:17.022Z,6.09
2023-02-12T21:11:11.431Z,6.05
2023-02-12T21:15:25.230Z,6.06
2023-02-12T21:19:29.197Z,6.03
2023-02-12T21:23:31.598Z,6.05
2023-02-12T21:27:35.036Z,6.04
2023-02-12T21:36:03.816Z,6.03
2023-02-12T21:40:24.755Z,5.97
2023-02-12T21:44:56.914Z,5.96
2023-02-12T21:49:06.087Z,5.97
2023-02-12T21:52:21.288Z,5.94
2023-02-12T21:56:16.831Z,5.99
2023-02-12T22:00:08.981Z,5.96
2023-02-12T22:04:17.966Z,5.91
2023-02-12T22:08:22.775Z,5.87
2023-02-12T22:12:23.767Z,5.89
2023-02-12T22:16:22.048Z,5.82
2023-02-12T22:20:26.336Z,5.82
2023-02-12T22:24:18.469Z,5.73
2023-02-12T22:28:04.208Z,5.76
2023-02-12T22:32:03.585Z,5.65
2023-02-12T22:35:21.272Z,5.75
2023-02-12T22:38:25.229Z,5.71
2023-02-12T22:41:30.519Z,5.66
2023-02-12T22:44:34.572Z,5.69
2023-02-12T22:47:38.439Z,5.70
2023-02-12T22:50:43.700Z,5.66
2023-02-12T22:53:47.976Z,5.68
2023-02-12T22:56:53.302Z,5.71
2023-02-12T22:59:57.068Z,5.73
2023-02-12T23:03:00.988Z,5.72
2023-02-12T23:06:09.183Z,5.67
2023-02-12T23:09:16.972Z,5.67
2023-02-12T23:12:20.716Z,5.68
2023-02-12T23:15:24.567Z,5.69
2023-02-12T23:18:28.386Z,5.69
2023-02-12T23:21:33.914Z,5.67
2023-02-12T23:25:23.063Z,5.68
2023-02-12T23:29:15.569Z,5.69
2023-02-12T23:33:10.538Z,5.63
2023-02-12T23:37:12.571Z,5.65
2023-02-12T23:41:15.842Z,5.64
2023-02-12T23:45:12.209Z,5.65
2023-02-12T23:49:19.824Z,5.66
2023-02-12T23:53:27.944Z,5.60
2023-02-12T23:57:28.228Z,5.60
